Nearby METAR Reports

 

LIBV - Gioia Del Colle, Italy
Distance from station: ЮЮИ 15km
Актуализирано: 19/07/2018 19:55
NOT Current
Тихо и ясно
Тихо и ясно
 Вятър от С
Вятър: С 15 km/h
Температура: 27°C
Точка на оросяване: 7°C
Влажност: 28%
Барометър: 1013 hPa
Метео сводка: Тихо и ясно
Visibility: greater than 10 km
2018/07/19 17:55 LIBV 191755Z 36008KT CAVOK 27/07 Q1013 RMK SKC VIS MIN 9999 WIND THR32 /////KT WIND THR14 36008KT BLU
LIBD - Bari/Palese Macc, Italy
Distance from station: ССЗ 26km
Актуализирано: 19/07/2018 20:50
Тихо и ясно
Тихо и ясно
 Вятър от ЗЮЗ
Вятър: ЗЮЗ 6 km/h
Температура: 25°C
Точка на оросяване: 14°C
Влажност: 51%
Барометър: 1012 hPa
Метео сводка: Тихо и ясно
Visibility: greater than 10 km
2018/07/19 18:50 LIBD 191850Z 25003KT CAVOK 25/14 Q1012
LIBH - Marina Di Ginosa, Italy
Distance from station: Ю 53km
Актуализирано: 19/07/2018 19:55
NOT Current
Тихо и ясно
Тихо и ясно
 Вятър от ССЗ
Вятър: ССЗ 6 km/h
Температура: 32°C
Точка на оросяване: 11°C
Влажност: 27%
Барометър: 1011 hPa
Метео сводка: Тихо и ясно
Visibility: greater than 10 km
2018/07/19 17:55 LIBH 191755Z 34003KT CAVOK 32/11 Q1011 RMK SKC QUK 1 QUL 0 VIS MAR 20 KM VIS MIN 9999
 
LIBG - Grottaglie(Civ/A, Italy
Distance from station: ЮИ 61km
Актуализирано: 19/07/2018 19:50
NOT Current
Тихо и ясно
Тихо и ясно
 Вятър от С
Вятър: С 15 km/h
Температура: 30°C
Точка на оросяване: 8°C
Влажност: 25%
Барометър: 1010 hPa
Метео сводка: Тихо и ясно
Visibility: greater than 10 km
2018/07/19 17:50 LIBG 191750Z 01008KT CAVOK 30/08 Q1010
LIBR - Brindisi/Casale, Italy
Distance from station: ИЮИ 96km
Актуализирано: 19/07/2018 20:50
Тихо и ясно
Тихо и ясно
 Вятър от ЗСЗ
Вятър: ЗСЗ 11 km/h
Температура: 25°C
Точка на оросяване: 21°C
Влажност: 79%
Барометър: 1011 hPa
Метео сводка: Тихо и ясно
Visibility: greater than 10 km
2018/07/19 18:50 LIBR 191850Z 29006KT CAVOK 25/21 Q1011
LIBA - Amendola (it-Afb, Italy
Distance from station: СЗ 118km
Актуализирано: 19/07/2018 19:55
NOT Current
Тихо и ясно
Тихо и ясно
 Вятър от ИЮИ
Вятър: ИЮИ 11 km/h
Температура: 28°C
Heat Index: 28°C
Точка на оросяване: 17°C
Влажност: 51%
Барометър: 1011 hPa
Метео сводка: Тихо и ясно
Visibility: greater than 10 km
2018/07/19 17:55 LIBA 191755Z 11006KT CAVOK 28/17 Q1011 RMK FEW FEW070 VIS MIN 9999 WIND THR11 12007KT WIND THR29 /////KT BLU
 
LIBF - Foggia/Gino Lisa, Italy
Distance from station: ЗСЗ 126km
Актуализирано: 19/07/2018 17:50
NOT Current
Few Clouds
Few Clouds
 Вятър от С
Вятър: С 13 km/h
Температура: 35°C
Точка на оросяване: 3°C
Влажност: 13%
Барометър: 1011 hPa
Clouds: Few Clouds
Visibility: 10 km
Cloud details: Few Clouds 1372 m
2018/07/19 15:50 LIBF 191550Z 35007KT 300V040 9999 FEW045 35/03 Q1011
LIBN - Lecce (it-Afb), Italy
Distance from station: ЮИ 132km
Актуализирано: 19/07/2018 19:55
NOT Current
Тихо и ясно
Тихо и ясно
 Вятър от С
Вятър: С 17 km/h
Температура: 28°C
Heat Index: 28°C
Точка на оросяване: 16°C
Влажност: 48%
Барометър: 1011 hPa
Метео сводка: Тихо и ясно
Visibility: greater than 10 km
2018/07/19 17:55 LIBN 191755Z 35009KT CAVOK 28/16 Q1011 RMK SKC VIS MIN 9999 WIND THR14 36009KT WIND THR32 35010KT BLU